KMSN/MSN METAR and TAF weather

Enter ICAO airport designator
Station Type Date Time Source
KMSN METAR 2019/08/25 06:53 UTC NOAA

KMSN 250653Z AUTO 00000KT 10SM CLR 12/11 A3018 RMK AO2 SLP217 T01220106


Station Type Date Time Source
KMSN Decoded METAR 2019/08/25 06:53 UTC NOAA

Station name not available
Aug 25, 2019 - 02:53 AM EDT / 2019.08.25 0653 UTC
Wind: Calm:0
Visibility: 10 mile(s):0
Sky conditions: clear
Temperature: 54.0 F (12.2 C)
Dew Point: 51.1 F (10.6 C)
Relative Humidity: 89%
Pressure (altimeter): 30.18 in. Hg (1022 hPa)
ob: KMSN 250653Z AUTO 00000KT 10SM CLR 12/11 A3018 RMK AO2 SLP217 T01220106
cycle: 7

Station Type Date Time Source
KMSN TAF 2019/08/25 06:22 UTC NOAA

TAF KMSN 250520Z 2506/2606 06004KT P6SM SCT250
FM250700 06004KT P6SM SCT040 BKN250
TEMPO 2508/2510 BKN040
FM251500 12007KT P6SM SCT035 BKN200
FM251800 13009KT P6SM SCT040 BKN200
FM260200 11006KT P6SM SCT080 BKN120

Example: see airport list